createdAt,value
2022-09-12T00:01:56.416Z,97917.91
2022-09-12T00:04:58.396Z,97916.25
2022-09-12T00:08:02.274Z,97914.06
2022-09-12T00:11:07.024Z,97918.03
2022-09-12T00:14:11.421Z,97913.91
2022-09-12T00:17:13.546Z,97917.91
2022-09-12T00:20:15.446Z,97918.34
2022-09-12T00:23:18.124Z,97913.50
2022-09-12T00:26:21.216Z,97915.81
2022-09-12T00:29:24.174Z,97916.00
2022-09-12T00:32:26.574Z,97919.41
2022-09-12T00:35:28.878Z,97921.91
2022-09-12T00:38:31.245Z,97910.34
2022-09-12T00:41:37.545Z,97912.56
2022-09-12T00:44:39.454Z,97918.31
2022-09-12T00:47:42.161Z,97928.53
2022-09-12T00:50:45.156Z,97929.19
2022-09-12T00:53:49.225Z,97927.91
2022-09-12T00:56:53.999Z,97919.50
2022-09-12T01:00:00.227Z,97914.13
2022-09-12T01:03:05.589Z,97924.53
2022-09-12T01:06:21.662Z,97918.78
2022-09-12T01:09:24.546Z,97922.41
2022-09-12T01:12:27.353Z,97924.41
2022-09-12T01:15:30.114Z,97919.31
2022-09-12T01:18:50.739Z,97921.47
2022-09-12T01:22:20.551Z,97928.09
2022-09-12T01:25:32.375Z,97916.69
2022-09-12T01:28:40.455Z,97927.25
2022-09-12T01:32:02.492Z,97920.19
2022-09-12T01:35:23.205Z,97914.06
2022-09-12T01:38:38.214Z,97919.81
2022-09-12T01:42:03.386Z,97908.47
2022-09-12T01:45:10.652Z,97910.63
2022-09-12T01:48:21.450Z,97910.78
2022-09-12T01:51:26.455Z,97900.22
2022-09-12T01:54:43.833Z,97912.88
2022-09-12T01:57:59.221Z,97903.84
2022-09-12T02:01:09.843Z,97910.94
2022-09-12T02:04:21.864Z,97913.06
2022-09-12T02:07:30.634Z,97908.78
2022-09-12T02:10:42.638Z,97905.66
2022-09-12T02:13:57.803Z,97911.75
2022-09-12T02:17:06.287Z,97918.03
2022-09-12T02:20:47.556Z,97918.53
2022-09-12T02:23:55.576Z,97913.25
2022-09-12T02:27:01.079Z,97911.63
2022-09-12T02:30:03.128Z,97911.91
2022-09-12T02:33:35.399Z,97910.28
2022-09-12T02:37:13.629Z,97911.75
2022-09-12T02:40:16.214Z,97917.22
2022-09-12T02:43:18.475Z,97915.41
2022-09-12T02:46:34.778Z,97908.66
2022-09-12T02:49:37.392Z,97909.78
2022-09-12T02:52:42.925Z,97914.72
2022-09-12T02:55:47.395Z,97925.09
2022-09-12T02:58:49.642Z,97911.91
2022-09-12T03:02:00.828Z,97920.19
2022-09-12T03:05:15.138Z,97918.69
2022-09-12T03:08:36.006Z,97915.56
2022-09-12T03:12:01.431Z,97924.59
2022-09-12T03:15:11.189Z,97922.13
2022-09-12T03:18:49.017Z,97914.41
2022-09-12T03:22:20.070Z,97912.28
2022-09-12T03:25:28.176Z,97902.38
2022-09-12T03:28:31.673Z,97905.69
2022-09-12T03:31:34.225Z,97900.22
2022-09-12T03:34:35.994Z,97892.19
2022-09-12T03:37:45.704Z,97907.50
2022-09-12T03:40:51.365Z,97904.00
2022-09-12T03:43:57.063Z,97903.53
2022-09-12T03:47:01.647Z,97906.47
2022-09-12T03:50:04.990Z,97904.03
2022-09-12T03:53:16.550Z,97914.06
2022-09-12T03:56:21.107Z,97913.88
2022-09-12T03:59:23.074Z,97919.81
2022-09-12T04:02:26.023Z,97930.53
2022-09-12T04:05:30.461Z,97925.91
2022-09-12T04:08:32.626Z,97927.41
2022-09-12T04:11:37.250Z,97926.91
2022-09-12T04:14:40.307Z,97917.19
2022-09-12T04:17:42.612Z,97922.47
2022-09-12T04:20:44.721Z,97913.25
2022-09-12T04:23:48.181Z,97919.69
2022-09-12T04:26:50.516Z,97910.00
2022-09-12T04:29:54.336Z,97921.16
2022-09-12T04:32:56.862Z,97915.59
2022-09-12T04:36:07.243Z,97907.69
2022-09-12T04:39:10.173Z,97912.63
2022-09-12T04:42:16.904Z,97910.63
2022-09-12T04:45:19.476Z,97910.31
2022-09-12T04:48:22.310Z,97906.81
2022-09-12T04:51:40.418Z,97910.78
2022-09-12T04:54:45.866Z,97909.75
2022-09-12T04:57:48.223Z,97915.47
2022-09-12T05:00:53.224Z,97915.91
2022-09-12T05:03:56.948Z,97918.00
2022-09-12T05:07:00.788Z,97926.63
2022-09-12T05:10:04.583Z,97933.19
2022-09-12T05:13:07.517Z,97930.56
2022-09-12T05:16:12.242Z,97938.00
2022-09-12T05:19:15.153Z,97947.34
2022-09-12T05:22:17.146Z,97943.47
2022-09-12T05:25:19.006Z,97948.69
2022-09-12T05:28:22.462Z,97950.28
2022-09-12T05:31:26.320Z,97952.19
2022-09-12T05:34:28.114Z,97956.97
2022-09-12T05:37:31.584Z,97957.97
2022-09-12T05:40:34.378Z,97958.25
2022-09-12T05:43:44.557Z,97968.44
2022-09-12T05:46:54.281Z,97963.44
2022-09-12T05:49:59.888Z,97965.56
2022-09-12T05:53:02.647Z,97968.84
2022-09-12T05:56:08.843Z,97960.22
2022-09-12T05:59:19.668Z,97961.19
2022-09-12T06:02:22.239Z,97970.66
2022-09-12T06:05:25.410Z,97969.19
2022-09-12T06:08:28.176Z,97970.19
2022-09-12T06:11:33.619Z,97963.56
2022-09-12T06:14:36.435Z,97960.41
2022-09-12T06:17:42.896Z,97959.09
2022-09-12T06:20:44.854Z,97962.38
2022-09-12T06:23:48.918Z,97961.63
2022-09-12T06:26:52.965Z,97954.78
2022-09-12T06:29:57.553Z,97958.75
2022-09-12T06:32:59.862Z,97967.41
2022-09-12T06:36:12.029Z,97960.38
2022-09-12T06:39:20.494Z,97962.03
2022-09-12T06:42:33.071Z,97965.13
2022-09-12T06:45:35.134Z,97964.47
2022-09-12T06:48:41.796Z,97961.28
2022-09-12T06:51:44.837Z,97960.19
2022-09-12T06:54:47.641Z,97960.81
2022-09-12T06:57:49.677Z,97966.22
2022-09-12T07:00:57.211Z,97970.63
2022-09-12T07:04:03.697Z,97966.56
2022-09-12T07:07:05.987Z,97965.84
2022-09-12T07:10:08.642Z,97962.66
2022-09-12T07:13:14.033Z,97975.22
2022-09-12T07:16:19.727Z,97966.13
2022-09-12T07:19:25.166Z,97982.47
2022-09-12T07:22:28.000Z,97979.06
2022-09-12T07:25:29.975Z,97969.69
2022-09-12T07:28:34.099Z,97974.97
2022-09-12T07:31:37.000Z,97983.91
2022-09-12T07:34:38.945Z,97983.81
2022-09-12T07:37:41.899Z,97985.53
2022-09-12T07:40:44.092Z,97994.19
2022-09-12T07:43:46.807Z,97985.06
2022-09-12T07:46:48.969Z,97992.63
2022-09-12T07:49:50.891Z,97992.78
2022-09-12T07:52:56.077Z,97991.66
2022-09-12T07:55:58.078Z,98007.78
2022-09-12T07:59:02.980Z,98006.16
2022-09-12T08:02:05.648Z,98014.19
2022-09-12T08:05:08.924Z,98006.09
2022-09-12T08:08:11.563Z,98011.25
2022-09-12T08:11:30.517Z,98001.66
2022-09-12T08:14:33.206Z,98008.25
2022-09-12T08:17:35.518Z,98004.09
2022-09-12T08:20:38.156Z,98005.06
2022-09-12T08:23:40.281Z,98007.09
2022-09-12T08:26:43.685Z,98000.88
2022-09-12T08:29:45.476Z,98003.19
2022-09-12T08:32:47.710Z,98005.84
2022-09-12T08:35:50.209Z,98010.44
2022-09-12T08:38:59.967Z,98021.06
2022-09-12T08:42:05.034Z,98011.72
2022-09-12T08:45:43.716Z,98026.53
2022-09-12T08:48:47.515Z,98014.09
2022-09-12T08:51:51.375Z,98010.75
2022-09-12T08:54:55.308Z,98007.69
2022-09-12T08:58:00.887Z,98005.78
2022-09-12T09:01:12.757Z,98006.75
2022-09-12T09:04:36.604Z,98003.97
2022-09-12T09:08:22.212Z,98005.78
2022-09-12T09:11:42.223Z,98002.53
2022-09-12T09:15:10.466Z,98004.97
2022-09-12T09:18:24.555Z,98005.72
2022-09-12T09:21:31.834Z,98002.69
2022-09-12T09:24:39.328Z,97997.00
2022-09-12T09:27:52.441Z,98006.50
2022-09-12T09:30:54.894Z,97989.63
2022-09-12T09:34:00.731Z,97994.72
2022-09-12T09:37:06.596Z,97999.94
2022-09-12T09:40:24.843Z,98005.97
2022-09-12T09:43:30.521Z,98004.59
2022-09-12T09:46:33.919Z,98004.19
2022-09-12T09:49:36.532Z,98005.72
2022-09-12T09:52:39.727Z,98007.00
2022-09-12T09:55:44.729Z,98010.63
2022-09-12T09:58:47.565Z,98005.91
2022-09-12T10:01:53.034Z,97996.06
2022-09-12T10:04:57.721Z,97998.50
2022-09-12T10:08:09.927Z,98005.22
2022-09-12T10:11:28.991Z,97993.94
2022-09-12T10:14:35.790Z,97997.66
2022-09-12T10:17:44.220Z,97990.13
2022-09-12T10:20:46.524Z,98001.53
2022-09-12T10:24:00.274Z,97999.25
2022-09-12T10:27:14.483Z,98004.59
2022-09-12T10:30:19.975Z,97997.38
2022-09-12T10:33:24.871Z,98008.59
2022-09-12T10:36:39.797Z,98007.00
2022-09-12T10:39:41.854Z,98001.81
2022-09-12T10:42:51.123Z,98003.75
2022-09-12T10:45:58.230Z,97996.00
2022-09-12T10:49:13.964Z,97998.00
2022-09-12T10:52:24.259Z,97997.69
2022-09-12T10:55:32.543Z,97998.63
2022-09-12T10:59:07.149Z,98000.09
2022-09-12T11:02:20.461Z,98008.34
2022-09-12T11:05:26.394Z,98016.13
2022-09-12T11:08:28.643Z,98023.41
2022-09-12T11:11:42.747Z,98010.81
2022-09-12T11:15:11.232Z,98012.03
2022-09-12T11:18:30.285Z,98007.00
2022-09-12T11:21:32.131Z,98021.41
2022-09-12T11:24:40.266Z,98006.97
2022-09-12T11:28:00.748Z,98007.66
2022-09-12T11:31:18.967Z,98012.50
2022-09-12T11:34:55.360Z,98015.28
2022-09-12T11:38:07.664Z,98013.13
2022-09-12T11:41:31.512Z,98009.97
2022-09-12T11:44:40.469Z,98010.59
2022-09-12T11:47:49.131Z,98009.13
2022-09-12T11:50:52.484Z,98019.78
2022-09-12T11:54:30.686Z,98001.97
2022-09-12T11:57:54.804Z,98013.47
2022-09-12T12:01:03.736Z,98011.31
2022-09-12T12:04:13.544Z,98016.38
2022-09-12T12:07:19.655Z,98013.81
2022-09-12T12:10:43.890Z,98010.72
2022-09-12T12:13:53.776Z,98013.25
2022-09-12T12:16:55.808Z,98002.41
2022-09-12T12:20:07.458Z,98000.56
2022-09-12T12:23:30.937Z,98001.38
2022-09-12T12:26:42.975Z,97989.53
2022-09-12T12:29:45.608Z,98001.78
2022-09-12T12:32:47.787Z,97998.50
2022-09-12T12:36:09.403Z,98003.03
2022-09-12T12:39:51.312Z,97992.16
2022-09-12T12:42:59.515Z,98004.09
2022-09-12T12:46:05.574Z,98003.03
2022-09-12T12:49:27.120Z,97990.75
2022-09-12T12:52:31.574Z,97996.44
2022-09-12T12:55:42.856Z,98003.25
2022-09-12T12:58:46.607Z,98010.66
2022-09-12T13:01:55.413Z,98010.97
2022-09-12T13:04:59.849Z,97995.34
2022-09-12T13:08:08.492Z,98005.50
2022-09-12T13:11:30.642Z,97998.66
2022-09-12T13:14:55.813Z,98001.66
2022-09-12T13:18:33.421Z,97996.03
2022-09-12T13:21:35.364Z,97983.94
2022-09-12T13:24:45.474Z,97985.44
2022-09-12T13:28:13.121Z,97978.25
2022-09-12T13:31:15.518Z,97982.34
2022-09-12T13:34:25.591Z,97976.41
2022-09-12T13:37:39.287Z,97964.97
2022-09-12T13:40:57.033Z,97967.41
2022-09-12T13:43:58.890Z,97965.38
2022-09-12T13:47:02.238Z,97967.00
2022-09-12T13:50:06.371Z,97965.28
2022-09-12T13:53:14.430Z,97975.97
2022-09-12T13:56:21.113Z,97970.63
2022-09-12T13:59:22.956Z,97972.09
2022-09-12T14:02:29.526Z,97958.72
2022-09-12T14:05:38.373Z,97957.72
2022-09-12T14:08:43.519Z,97953.97
2022-09-12T14:11:46.509Z,97949.63
2022-09-12T14:14:50.516Z,97948.47
2022-09-12T14:17:55.143Z,97961.69
2022-09-12T14:21:02.878Z,97961.69
2022-09-12T14:24:07.291Z,97961.22
2022-09-12T14:27:10.496Z,97957.19
2022-09-12T14:30:27.852Z,97960.66
2022-09-12T14:33:49.127Z,97965.78
2022-09-12T14:36:53.180Z,97959.59
2022-09-12T14:39:55.275Z,97968.00
2022-09-12T14:43:01.200Z,97968.16
2022-09-12T14:46:22.140Z,97967.41
2022-09-12T14:49:32.061Z,97963.91
2022-09-12T14:52:35.288Z,97964.53
2022-09-12T14:55:45.105Z,97959.00
2022-09-12T14:58:47.498Z,97965.38
2022-09-12T15:01:49.669Z,97955.94
2022-09-12T15:04:54.649Z,97960.88
2022-09-12T15:08:03.432Z,97946.75
2022-09-12T15:11:07.094Z,97956.56
2022-09-12T15:14:15.662Z,97954.69
2022-09-12T15:17:17.839Z,97948.56
2022-09-12T15:20:20.434Z,97949.41
2022-09-12T15:23:35.762Z,97958.78
2022-09-12T15:26:38.283Z,97953.91
2022-09-12T15:29:40.730Z,97953.50
2022-09-12T15:32:43.979Z,97951.38
2022-09-12T15:35:47.090Z,97947.75
2022-09-12T15:38:50.196Z,97948.97
2022-09-12T15:41:52.575Z,97949.78
2022-09-12T15:44:59.415Z,97950.13
2022-09-12T15:48:04.505Z,97947.47
2022-09-12T15:51:15.264Z,97948.06
2022-09-12T15:54:18.610Z,97948.25
2022-09-12T15:57:21.465Z,97949.81
2022-09-12T16:00:24.131Z,97949.56
2022-09-12T16:03:28.361Z,97955.72
2022-09-12T16:06:36.785Z,97958.53
2022-09-12T16:09:39.830Z,97960.00
2022-09-12T16:12:44.278Z,97960.25
2022-09-12T16:15:47.691Z,97953.28
2022-09-12T16:18:49.891Z,97959.84
2022-09-12T16:21:51.735Z,97961.84
2022-09-12T16:24:54.533Z,97954.38
2022-09-12T16:27:57.036Z,97947.75
2022-09-12T16:31:01.491Z,97954.63
2022-09-12T16:34:04.258Z,97954.56
2022-09-12T16:37:06.918Z,97958.63
2022-09-12T16:40:10.129Z,97957.75
2022-09-12T16:43:12.740Z,97960.84
2022-09-12T16:46:16.167Z,97956.41
2022-09-12T16:49:18.121Z,97959.63
2022-09-12T16:52:21.010Z,97958.75
2022-09-12T16:55:22.977Z,97952.81
2022-09-12T16:58:25.650Z,97954.59
2022-09-12T17:01:28.084Z,97957.53
2022-09-12T17:04:30.562Z,97968.56
2022-09-12T17:07:34.629Z,97968.69
2022-09-12T17:10:42.075Z,97971.78
2022-09-12T17:14:10.714Z,97967.72
2022-09-12T17:17:13.964Z,97967.09
2022-09-12T17:20:16.361Z,97978.00
2022-09-12T17:23:19.325Z,97969.34
2022-09-12T17:26:21.657Z,97972.84
2022-09-12T17:29:30.577Z,97976.41
2022-09-12T17:32:33.890Z,97978.16
2022-09-12T17:35:37.793Z,97976.72
2022-09-12T17:38:40.405Z,97980.09
2022-09-12T17:41:43.323Z,97981.66
2022-09-12T17:44:45.841Z,97981.34
2022-09-12T17:47:48.757Z,97982.81
2022-09-12T17:50:51.046Z,97991.28
2022-09-12T17:53:59.248Z,97992.13
2022-09-12T17:57:01.440Z,97990.94
2022-09-12T18:00:05.141Z,97996.22
2022-09-12T18:03:14.732Z,97991.28
2022-09-12T18:06:17.228Z,97994.28
2022-09-12T18:09:22.769Z,97993.94
2022-09-12T18:12:25.501Z,97999.22
2022-09-12T18:15:27.448Z,97997.44
2022-09-12T18:18:30.059Z,98001.66
2022-09-12T18:21:32.331Z,97999.34
2022-09-12T18:24:34.977Z,97994.56
2022-09-12T18:27:37.236Z,98000.66
2022-09-12T18:30:41.415Z,97995.72
2022-09-12T18:33:45.009Z,97997.94
2022-09-12T18:36:50.258Z,98000.03
2022-09-12T18:39:52.301Z,98000.91
2022-09-12T18:42:54.357Z,98001.09
2022-09-12T18:45:56.947Z,98002.44
2022-09-12T18:49:00.109Z,98001.09
2022-09-12T18:52:03.046Z,98006.03
2022-09-12T18:55:05.566Z,98003.91
2022-09-12T18:58:07.887Z,98003.59
2022-09-12T19:01:15.697Z,98003.91
2022-09-12T19:04:18.791Z,98003.75
2022-09-12T19:07:21.138Z,97999.75
2022-09-12T19:10:23.243Z,97996.81
2022-09-12T19:13:25.672Z,97999.66
2022-09-12T19:16:29.075Z,97999.19
2022-09-12T19:19:31.630Z,97987.97
2022-09-12T19:22:34.003Z,98002.78
2022-09-12T19:25:36.497Z,98003.44
2022-09-12T19:28:39.798Z,98002.81
2022-09-12T19:31:43.075Z,98004.59
2022-09-12T19:34:45.647Z,98006.75
2022-09-12T19:37:47.814Z,98000.47
2022-09-12T19:41:00.342Z,97993.94
2022-09-12T19:44:04.473Z,97992.94
2022-09-12T19:47:06.944Z,97999.16
2022-09-12T19:50:11.377Z,97992.25
2022-09-12T19:53:13.651Z,97990.25
2022-09-12T19:56:16.475Z,97989.63
2022-09-12T19:59:18.920Z,97989.63
2022-09-12T20:02:20.876Z,97987.66
2022-09-12T20:05:23.589Z,97992.25
2022-09-12T20:08:25.634Z,97988.00
2022-09-12T20:11:27.642Z,97987.00
2022-09-12T20:14:30.829Z,97993.91
2022-09-12T20:17:32.745Z,97984.69
2022-09-12T20:20:35.153Z,97988.00
2022-09-12T20:23:37.380Z,97989.66
2022-09-12T20:26:40.482Z,97986.38
2022-09-12T20:29:42.961Z,97986.38
2022-09-12T20:32:45.189Z,97983.38
2022-09-12T20:35:47.408Z,97989.47
2022-09-12T20:39:01.493Z,97989.97
2022-09-12T20:42:03.562Z,97990.94
2022-09-12T20:45:06.648Z,97989.31
2022-09-12T20:48:08.773Z,97989.50
2022-09-12T20:51:10.690Z,97991.47
2022-09-12T20:54:13.025Z,97999.19
2022-09-12T20:57:14.928Z,97994.59
2022-09-12T21:00:17.600Z,97993.25
2022-09-12T21:03:22.074Z,97996.22
2022-09-12T21:06:24.295Z,97991.63
2022-09-12T21:09:26.534Z,97993.25
2022-09-12T21:12:29.217Z,97988.81
2022-09-12T21:15:32.108Z,97997.88
2022-09-12T21:18:34.818Z,97989.16
2022-09-12T21:21:36.994Z,98010.72
2022-09-12T21:24:38.996Z,98003.81
2022-09-12T21:27:40.846Z,97996.72
2022-09-12T21:30:44.308Z,98002.16
2022-09-12T21:33:46.566Z,98014.66
2022-09-12T21:36:48.513Z,98008.56
2022-09-12T21:39:50.650Z,98012.69
2022-09-12T21:42:52.614Z,98005.13
2022-09-12T21:45:59.318Z,98003.78
2022-09-12T21:49:01.273Z,98003.09
2022-09-12T21:52:04.175Z,97994.88
2022-09-12T21:55:07.515Z,97990.25
2022-09-12T21:58:11.053Z,97992.56
2022-09-12T22:01:13.198Z,97986.34
2022-09-12T22:04:15.157Z,97985.19
2022-09-12T22:07:17.325Z,97985.00
2022-09-12T22:10:19.289Z,97984.00
2022-09-12T22:13:21.894Z,97981.72
2022-09-12T22:16:24.263Z,97987.63
2022-09-12T22:19:26.819Z,97983.50
2022-09-12T22:22:47.327Z,97985.97
2022-09-12T22:25:49.141Z,97981.06
2022-09-12T22:28:51.716Z,97982.19
2022-09-12T22:31:53.838Z,97989.06
2022-09-12T22:34:55.813Z,97982.63
2022-09-12T22:37:58.079Z,97986.00
2022-09-12T22:41:03.737Z,97976.84
2022-09-12T22:44:06.586Z,97975.84
2022-09-12T22:47:08.455Z,97970.44
2022-09-12T22:50:10.339Z,97976.03
2022-09-12T22:53:12.203Z,97970.84
2022-09-12T22:56:13.969Z,97973.63
2022-09-12T22:59:16.505Z,97969.97
2022-09-12T23:02:18.561Z,97964.22
2022-09-12T23:05:20.563Z,97961.75
2022-09-12T23:08:22.552Z,97959.09
2022-09-12T23:11:24.664Z,97960.78
2022-09-12T23:14:27.045Z,97955.97
2022-09-12T23:17:28.795Z,97955.84
2022-09-12T23:20:30.577Z,97956.28
2022-09-12T23:23:33.302Z,97962.78
2022-09-12T23:26:35.092Z,97961.75
2022-09-12T23:29:36.976Z,97964.22
2022-09-12T23:32:38.977Z,97966.72
2022-09-12T23:35:40.848Z,97961.88
2022-09-12T23:38:45.138Z,97968.34
2022-09-12T23:41:47.086Z,97977.25
2022-09-12T23:44:48.999Z,97969.91
2022-09-12T23:47:51.143Z,97963.31
2022-09-12T23:50:53.604Z,97963.59
2022-09-12T23:53:56.113Z,97955.38
2022-09-12T23:56:57.838Z,97957.63
2022-09-12T23:59:59.553Z,97957.31
